Time;durP1;ratioP1;P1;durP2;ratioP2;P2;SDS_P1;SDS_P2;PMS_P1;PMS_P2;Temp;Humidity;BMP_temperature;BMP_pressure;BME280_temperature;BME280_humidity;BME280_pressure;Samples;Min_cycle;Max_cycle;Signal;HPM_P1;HPM_P2
2022/08/23 00:01:09;;;;;;;2.15;1.73;;;23.80;55.80;;;;;;5053789;28;20179;-63
2022/08/23 00:03:34;;;;;;;3.05;1.80;;;23.80;55.90;;;;;;5052207;28;20702;-63
2022/08/23 00:06:00;;;;;;;2.10;1.80;;;23.80;55.80;;;;;;5053767;28;20179;-63
2022/08/23 00:08:26;;;;;;;1.88;1.77;;;23.70;55.80;;;;;;5052825;28;20219;-63
2022/08/23 00:10:51;;;;;;;2.08;1.70;;;23.70;55.80;;;;;;5053569;28;20548;-63
2022/08/23 00:13:17;;;;;;;2.10;1.90;;;23.80;55.90;;;;;;5053476;28;20679;-64
2022/08/23 00:15:42;;;;;;;2.15;1.95;;;23.80;55.90;;;;;;5052936;28;20182;-65
2022/08/23 00:18:08;;;;;;;1.58;1.48;;;23.80;55.90;;;;;;5053564;28;20186;-64
2022/08/23 00:20:33;;;;;;;2.05;1.65;;;23.70;56.00;;;;;;5053570;28;20179;-64
2022/08/23 00:22:59;;;;;;;2.15;1.80;;;23.70;56.00;;;;;;5051560;28;20171;-64
2022/08/23 00:25:24;;;;;;;1.80;1.70;;;23.70;56.00;;;;;;5053451;28;20171;-64
2022/08/23 00:27:50;;;;;;;2.08;1.70;;;23.70;56.00;;;;;;5053211;28;20205;-63
2022/08/23 00:30:16;;;;;;;2.38;1.70;;;23.70;56.00;;;;;;5052525;28;20627;-63
2022/08/23 00:32:42;;;;;;;2.58;2.13;;;23.70;56.00;;;;;;5053497;28;20187;-64
2022/08/23 00:35:08;;;;;;;2.42;1.80;;;23.70;56.00;;;;;;5053090;28;20186;-64
2022/08/23 00:37:34;;;;;;;1.70;1.60;;;23.70;56.10;;;;;;5052581;28;20183;-64
2022/08/23 00:40:00;;;;;;;2.78;1.90;;;23.70;56.10;;;;;;5053039;28;20748;-64
2022/08/23 00:48:40;;;;;;;1.88;1.77;;;23.70;56.10;;;;;;5053142;28;20186;-65
2022/08/23 00:51:27;;;;;;;4.10;1.90;;;23.70;56.10;;;;;;5050813;28;20597;-65
2022/08/23 00:53:57;;;;;;;2.78;1.75;;;23.70;56.00;;;;;;5051803;28;20584;-63
2022/08/23 00:56:24;;;;;;;2.00;1.80;;;23.70;56.00;;;;;;5051718;28;20180;-63
2022/08/23 00:58:49;;;;;;;1.70;1.60;;;23.70;56.00;;;;;;5050754;28;20664;-63
2022/08/23 01:01:15;;;;;;;1.88;1.77;;;23.70;56.00;;;;;;5052855;28;20179;-64
2022/08/23 01:03:42;;;;;;;1.95;1.70;;;23.70;56.00;;;;;;5052386;28;20626;-64
2022/08/23 01:06:10;;;;;;;2.20;2.00;;;23.70;56.10;;;;;;5050930;28;20198;-63
2022/08/23 01:08:36;;;;;;;2.10;1.80;;;23.70;56.10;;;;;;5052502;28;20709;-64
2022/08/23 01:11:07;;;;;;;2.75;1.70;;;23.70;56.10;;;;;;5051347;28;20229;-64
2022/08/23 01:13:39;;;;;;;2.38;1.75;;;23.70;56.10;;;;;;5050762;28;20198;-64
2022/08/23 01:16:11;;;;;;;2.08;1.67;;;23.70;56.10;;;;;;5051280;28;20183;-64
2022/08/23 01:18:37;;;;;;;2.15;1.92;;;23.70;56.10;;;;;;5050878;28;20258;-63
2022/08/23 01:21:12;;;;;;;2.25;1.85;;;23.70;56.20;;;;;;5051401;28;20638;-64
2022/08/23 01:23:52;;;;;;;2.08;1.88;;;23.70;56.30;;;;;;5051395;28;20175;-64
2022/08/23 01:26:19;;;;;;;2.20;1.70;;;23.60;56.10;;;;;;5050622;28;20637;-63
2022/08/23 01:28:44;;;;;;;1.80;1.70;;;23.70;56.20;;;;;;5051075;28;20633;-63
2022/08/23 01:31:10;;;;;;;1.92;1.80;;;23.60;56.20;;;;;;5052382;28;20219;-63
2022/08/23 01:33:36;;;;;;;1.98;1.70;;;23.60;56.20;;;;;;5050777;28;20228;-65
2022/08/23 01:36:02;;;;;;;1.83;1.73;;;23.60;56.30;;;;;;5051533;28;20270;-64
2022/08/23 01:38:27;;;;;;;3.38;2.15;;;23.60;56.20;;;;;;5052371;28;20175;-64
2022/08/23 01:40:53;;;;;;;2.63;2.08;;;23.60;56.10;;;;;;5051403;28;20185;-64
2022/08/23 01:43:20;;;;;;;3.08;2.05;;;23.60;56.20;;;;;;5052120;28;20177;-64
2022/08/23 01:45:46;;;;;;;1.85;1.75;;;23.60;56.20;;;;;;5052440;28;20182;-64
2022/08/23 01:48:15;;;;;;;1.80;1.70;;;23.60;56.20;;;;;;5051832;28;20172;-63
2022/08/23 01:50:40;;;;;;;3.75;2.20;;;23.60;56.30;;;;;;5052398;28;20211;-63
2022/08/23 01:53:06;;;;;;;1.90;1.70;;;23.60;56.30;;;;;;5052217;28;20175;-63
2022/08/23 01:55:32;;;;;;;2.38;2.13;;;23.60;56.30;;;;;;5051537;28;20183;-64
2022/08/23 01:57:59;;;;;;;2.67;1.92;;;23.60;56.10;;;;;;5052375;28;20637;-64
2022/08/23 02:00:31;;;;;;;2.30;2.10;;;23.60;56.30;;;;;;5052468;28;20179;-63
2022/08/23 02:02:58;;;;;;;1.98;1.60;;;23.60;56.20;;;;;;5051534;28;20495;-63
2022/08/23 02:05:23;;;;;;;2.10;1.90;;;23.60;56.30;;;;;;5052374;28;20179;-63
2022/08/23 02:07:49;;;;;;;1.73;1.63;;;23.60;56.20;;;;;;5051296;28;20235;-64
2022/08/23 02:10:14;;;;;;;2.05;1.90;;;23.60;56.20;;;;;;5052151;28;20202;-63
2022/08/23 02:12:40;;;;;;;1.70;1.60;;;23.60;56.30;;;;;;5052676;28;20237;-66
2022/08/23 02:15:06;;;;;;;2.38;2.05;;;23.60;56.30;;;;;;5051727;28;20163;-64
2022/08/23 02:17:31;;;;;;;2.22;1.98;;;23.50;56.30;;;;;;5056291;28;20179;-64
2022/08/23 02:19:57;;;;;;;2.33;2.22;;;23.50;56.30;;;;;;5055679;28;20191;-64
2022/08/23 02:22:22;;;;;;;2.40;1.98;;;23.50;56.40;;;;;;5055050;28;20178;-64
2022/08/23 02:24:48;;;;;;;1.70;1.60;;;23.50;56.30;;;;;;5055712;28;20206;-64
2022/08/23 02:27:14;;;;;;;2.30;2.05;;;23.50;56.30;;;;;;5055771;28;20190;-64
2022/08/23 02:29:41;;;;;;;2.30;2.10;;;23.50;56.30;;;;;;5054809;28;20725;-63
2022/08/23 02:32:06;;;;;;;3.05;1.88;;;23.50;56.30;;;;;;5055597;28;20222;-63
2022/08/23 02:34:32;;;;;;;2.10;2.00;;;23.50;56.20;;;;;;5055432;28;20504;-64
2022/08/23 02:36:58;;;;;;;1.88;1.77;;;23.50;56.20;;;;;;5054613;28;20225;-64
2022/08/23 02:39:23;;;;;;;2.30;2.00;;;23.50;56.40;;;;;;5055373;28;20171;-65
2022/08/23 02:41:49;;;;;;;2.13;1.92;;;23.50;56.40;;;;;;5055205;28;20511;-64
2022/08/23 02:44:15;;;;;;;2.90;2.13;;;23.50;56.20;;;;;;5054604;28;20182;-64
2022/08/23 02:46:41;;;;;;;2.38;1.73;;;23.50;56.20;;;;;;5055594;28;20183;-63
2022/08/23 02:49:06;;;;;;;2.50;2.03;;;23.50;56.30;;;;;;5055388;28;20548;-63
2022/08/23 02:51:32;;;;;;;2.45;1.90;;;23.50;56.30;;;;;;5054471;28;20214;-63
2022/08/23 02:53:57;;;;;;;2.20;2.00;;;23.50;56.30;;;;;;5054969;28;20178;-63
2022/08/23 02:56:23;;;;;;;2.28;1.95;;;23.50;56.40;;;;;;5054988;28;20181;-63
2022/08/23 02:58:49;;;;;;;2.42;2.22;;;23.50;56.40;;;;;;5054444;28;20229;-64
2022/08/23 03:01:24;;;;;;;3.28;1.88;;;23.50;56.30;;;;;;5055306;28;20262;-64
2022/08/23 03:03:49;;;;;;;2.40;2.20;;;23.50;56.40;;;;;;5055045;28;20190;-64
2022/08/23 03:06:15;;;;;;;3.80;2.28;;;23.50;56.40;;;;;;5054307;28;20573;-64
2022/08/23 03:08:41;;;;;;;2.20;2.05;;;23.50;56.40;;;;;;5054721;28;20701;-64
2022/08/23 03:11:11;;;;;;;2.50;2.10;;;23.40;56.40;;;;;;5053808;28;20731;-63
2022/08/23 03:13:37;;;;;;;2.20;1.98;;;23.50;56.50;;;;;;5054815;28;20641;-64
2022/08/23 03:16:03;;;;;;;2.25;2.05;;;23.50;56.40;;;;;;5054776;28;20187;-64
2022/08/23 03:18:28;;;;;;;3.22;2.10;;;23.50;56.40;;;;;;5053949;28;20229;-64
2022/08/23 03:20:54;;;;;;;2.60;2.40;;;23.50;56.40;;;;;;5054539;28;20265;-64
2022/08/23 03:23:20;;;;;;;2.28;2.08;;;23.50;56.40;;;;;;5054687;28;20270;-64
2022/08/23 03:25:45;;;;;;;2.22;2.10;;;23.40;56.40;;;;;;5053680;28;20258;-63
2022/08/23 03:28:11;;;;;;;2.85;2.20;;;23.40;56.40;;;;;;5054554;28;20512;-63
2022/08/23 03:30:36;;;;;;;2.38;2.00;;;23.40;56.40;;;;;;5054501;28;20246;-63
2022/08/23 03:33:02;;;;;;;2.28;2.10;;;23.40;56.40;;;;;;5053722;28;20270;-63
2022/08/23 03:35:28;;;;;;;2.10;1.90;;;23.40;56.40;;;;;;5054361;28;20176;-64
2022/08/23 03:37:53;;;;;;;2.35;2.17;;;23.40;56.40;;;;;;5054220;28;20511;-64
2022/08/23 03:40:19;;;;;;;2.22;1.95;;;23.40;56.40;;;;;;5053551;28;20198;-64
2022/08/23 03:42:45;;;;;;;2.30;2.08;;;23.40;56.50;;;;;;5054112;28;20183;-64
2022/08/23 03:45:10;;;;;;;2.58;2.38;;;23.40;56.40;;;;;;5054457;28;20175;-64
2022/08/23 03:47:36;;;;;;;2.08;1.98;;;23.40;56.50;;;;;;5053385;28;20704;-64
2022/08/23 03:50:01;;;;;;;2.42;2.20;;;23.40;56.40;;;;;;5053828;28;20281;-63
2022/08/23 03:52:27;;;;;;;2.50;2.30;;;23.40;56.40;;;;;;5053892;28;20187;-64
2022/08/23 03:54:53;;;;;;;2.10;2.00;;;23.40;57.00;;;;;;5053102;28;20180;-63
2022/08/23 03:57:18;;;;;;;2.50;2.08;;;23.40;56.40;;;;;;5054059;28;20221;-62
2022/08/23 03:59:44;;;;;;;2.88;2.08;;;23.40;56.40;;;;;;5053724;28;20171;-63
2022/08/23 04:02:09;;;;;;;2.60;2.40;;;23.40;56.50;;;;;;5053307;28;20172;-63
2022/08/23 04:04:35;;;;;;;1.92;1.80;;;23.40;56.50;;;;;;5053710;28;20731;-63
2022/08/23 04:07:01;;;;;;;2.33;2.13;;;23.40;56.50;;;;;;5053362;28;20293;-63
2022/08/23 04:09:28;;;;;;;2.45;2.25;;;23.40;56.60;;;;;;5053199;28;20183;-63
2022/08/23 04:11:53;;;;;;;2.20;2.10;;;23.30;56.40;;;;;;5053598;28;20576;-63
2022/08/23 04:14:19;;;;;;;2.10;2.00;;;23.40;56.50;;;;;;5053455;28;20700;-64
2022/08/23 04:16:44;;;;;;;2.58;2.30;;;23.40;56.50;;;;;;5052724;28;20175;-64
2022/08/23 04:19:12;;;;;;;2.38;2.17;;;23.40;56.50;;;;;;5053648;28;20637;-63
2022/08/23 04:21:37;;;;;;;2.28;2.08;;;23.40;56.60;;;;;;5052706;28;20190;-63
2022/08/23 04:24:03;;;;;;;2.20;2.00;;;23.40;56.60;;;;;;5053458;28;20175;-64
2022/08/23 04:26:29;;;;;;;2.47;2.20;;;23.40;56.50;;;;;;5053522;28;20657;-63
2022/08/23 04:28:54;;;;;;;2.53;2.33;;;23.40;56.60;;;;;;5052575;28;20532;-62
2022/08/23 04:31:20;;;;;;;2.78;2.38;;;23.40;56.60;;;;;;5053307;28;20285;-63
2022/08/23 04:33:46;;;;;;;2.50;2.30;;;23.30;56.60;;;;;;5053076;28;20220;-63
2022/08/23 04:36:11;;;;;;;2.33;2.15;;;23.30;56.80;;;;;;5052444;28;20179;-63
2022/08/23 04:38:37;;;;;;;2.90;2.70;;;23.40;56.80;;;;;;5052381;28;20191;-63
2022/08/23 04:43:47;;;;;;;2.97;2.38;;;23.30;56.60;;;;;;5052247;28;20645;-63
2022/08/23 04:46:15;;;;;;;2.50;2.30;;;23.40;56.70;;;;;;5053182;28;20175;-63
2022/08/23 04:48:44;;;;;;;2.38;2.20;;;23.30;56.70;;;;;;5053023;28;20529;-62
2022/08/23 04:51:10;;;;;;;2.35;2.17;;;23.30;56.70;;;;;;5052404;28;20211;-63
2022/08/23 04:53:36;;;;;;;2.50;2.30;;;23.30;56.70;;;;;;5052954;28;20175;-63
2022/08/23 04:56:02;;;;;;;2.38;2.10;;;23.30;56.70;;;;;;5052930;28;20686;-63
2022/08/23 04:58:28;;;;;;;2.35;2.15;;;23.30;56.70;;;;;;5051090;28;20176;-62
2022/08/23 05:00:54;;;;;;;2.30;2.10;;;23.30;56.70;;;;;;5052761;28;20600;-63
2022/08/23 05:03:20;;;;;;;2.20;2.00;;;23.30;56.80;;;;;;5051505;28;20629;-63
2022/08/23 05:05:45;;;;;;;3.83;2.63;;;23.30;56.70;;;;;;5051907;28;20175;-62
2022/08/23 05:08:11;;;;;;;2.58;2.38;;;23.30;56.70;;;;;;5052447;28;20230;-65
2022/08/23 05:10:36;;;;;;;2.20;2.00;;;23.30;56.70;;;;;;5052576;28;20591;-63
2022/08/23 05:13:02;;;;;;;2.63;2.42;;;23.30;56.70;;;;;;5051993;28;20228;-63
2022/08/23 05:15:27;;;;;;;2.05;1.85;;;23.30;56.70;;;;;;5052597;28;20201;-64
2022/08/23 05:17:53;;;;;;;2.50;2.30;;;23.30;56.70;;;;;;5051647;28;20242;-63
2022/08/23 05:20:18;;;;;;;2.25;2.15;;;23.30;56.70;;;;;;5052695;28;20245;-63
2022/08/23 05:22:44;;;;;;;2.20;2.00;;;23.30;56.70;;;;;;5052641;28;20175;-63
2022/08/23 05:25:10;;;;;;;2.70;2.05;;;23.30;56.70;;;;;;5052096;28;20175;-63
2022/08/23 05:27:35;;;;;;;2.08;1.90;;;23.30;56.70;;;;;;5052548;28;20641;-63
2022/08/23 05:30:01;;;;;;;2.35;2.10;;;23.30;56.70;;;;;;5052436;28;20186;-63
2022/08/23 05:32:27;;;;;;;2.42;2.25;;;23.30;56.60;;;;;;5051765;28;20557;-63
2022/08/23 05:34:52;;;;;;;2.47;2.28;;;23.30;56.60;;;;;;5052506;28;20183;-63
2022/08/23 05:37:18;;;;;;;2.25;2.15;;;23.30;56.60;;;;;;5052564;28;20174;-64
2022/08/23 05:39:43;;;;;;;2.65;2.45;;;23.40;56.70;;;;;;5051709;28;20507;-64
2022/08/23 05:42:10;;;;;;;2.85;2.65;;;23.30;56.60;;;;;;5052460;28;20178;-64
2022/08/23 05:44:36;;;;;;;3.35;2.33;;;23.40;56.60;;;;;;5052341;28;20262;-64
2022/08/23 05:47:03;;;;;;;2.42;1.98;;;23.30;56.50;;;;;;5051442;28;20596;-63
2022/08/23 05:49:29;;;;;;;2.40;2.20;;;23.30;56.60;;;;;;5053428;28;20182;-63
2022/08/23 05:51:55;;;;;;;2.47;2.30;;;23.30;56.60;;;;;;5056255;28;20206;-63
2022/08/23 05:54:21;;;;;;;3.00;2.70;;;23.30;56.60;;;;;;5055479;28;20171;-65
2022/08/23 05:56:46;;;;;;;2.88;2.55;;;23.30;56.60;;;;;;5056171;28;20183;-63
2022/08/23 05:59:14;;;;;;;2.40;2.20;;;23.40;56.70;;;;;;5056316;28;20533;-63
2022/08/23 06:01:40;;;;;;;2.42;2.15;;;23.40;56.70;;;;;;5055373;28;20595;-62
2022/08/23 06:04:06;;;;;;;2.80;1.98;;;23.40;56.70;;;;;;5056223;28;20258;-65
2022/08/23 06:06:32;;;;;;;2.55;2.10;;;23.40;56.70;;;;;;5056205;28;20189;-63
2022/08/23 06:08:58;;;;;;;2.50;2.40;;;23.40;56.70;;;;;;5054701;28;20227;-63
2022/08/23 06:11:26;;;;;;;2.33;2.13;;;23.40;56.70;;;;;;5056030;28;20689;-63
2022/08/23 06:13:59;;;;;;;2.90;2.28;;;23.40;56.70;;;;;;5055499;28;20176;-63
2022/08/23 06:16:26;;;;;;;2.90;2.40;;;23.40;56.70;;;;;;5055920;28;20179;-63
2022/08/23 06:18:53;;;;;;;2.47;2.28;;;23.50;56.70;;;;;;5055690;28;20176;-64
2022/08/23 06:21:18;;;;;;;3.03;2.45;;;23.50;56.70;;;;;;5054795;28;20172;-65
2022/08/23 06:23:46;;;;;;;2.63;2.25;;;23.50;56.70;;;;;;5055392;28;20218;-64
2022/08/23 06:26:14;;;;;;;5.35;2.28;;;23.50;56.70;;;;;;5055397;28;20175;-62
2022/08/23 06:28:40;;;;;;;2.60;2.00;;;23.50;56.70;;;;;;5054772;28;20179;-63
2022/08/23 06:31:06;;;;;;;4.28;2.10;;;23.50;56.60;;;;;;5055263;28;20218;-63
2022/08/23 06:33:31;;;;;;;2.38;2.00;;;23.50;56.60;;;;;;5055556;28;20168;-63
2022/08/23 06:36:08;;;;;;;3.88;2.30;;;23.50;56.60;;;;;;5054731;28;20299;-75
2022/08/23 06:38:34;;;;;;;6.20;2.63;;;23.50;56.60;;;;;;5055466;28;20178;-63
2022/08/23 06:41:04;;;;;;;2.70;2.42;;;23.60;56.80;;;;;;5055244;28;20299;-63
2022/08/23 06:43:30;;;;;;;2.97;2.67;;;23.60;56.60;;;;;;5054417;28;20701;-65
2022/08/23 06:46:09;;;;;;;3.40;2.17;;;23.70;56.60;;;;;;5055210;28;20179;-65
2022/08/23 06:48:34;;;;;;;2.45;2.25;;;23.60;56.60;;;;;;5055331;28;20179;-64
2022/08/23 06:51:00;;;;;;;3.13;2.25;;;23.70;56.60;;;;;;5054545;28;20554;-64
2022/08/23 06:53:25;;;;;;;2.35;2.17;;;23.70;56.70;;;;;;5055043;28;20179;-66
2022/08/23 06:55:51;;;;;;;3.60;2.33;;;23.70;56.60;;;;;;5054804;28;20645;-63
2022/08/23 06:58:16;;;;;;;3.05;2.63;;;23.70;56.60;;;;;;5054430;28;20185;-63
2022/08/23 07:00:42;;;;;;;3.65;2.50;;;23.80;56.70;;;;;;5054787;28;20175;-65
2022/08/23 07:03:08;;;;;;;3.10;2.40;;;23.80;56.70;;;;;;5054698;28;20179;-64
2022/08/23 07:05:33;;;;;;;3.65;2.47;;;23.80;56.70;;;;;;5054431;28;20179;-65
2022/08/23 07:07:59;;;;;;;4.68;2.72;;;23.80;56.70;;;;;;5054466;28;20584;-64
2022/08/23 07:10:24;;;;;;;3.47;2.58;;;23.80;56.70;;;;;;5053916;28;20182;-64
2022/08/23 07:12:50;;;;;;;4.32;2.67;;;23.80;56.70;;;;;;5054615;28;20249;-63
2022/08/23 07:15:15;;;;;;;3.38;2.35;;;23.80;56.70;;;;;;5054898;28;20175;-67
2022/08/23 07:17:41;;;;;;;3.13;2.63;;;23.80;56.70;;;;;;5054081;28;20251;-65
2022/08/23 07:20:07;;;;;;;3.72;2.63;;;23.80;56.70;;;;;;5054460;28;20274;-63
2022/08/23 07:22:32;;;;;;;3.33;2.65;;;23.80;56.70;;;;;;5054111;28;20176;-64
2022/08/23 07:24:58;;;;;;;4.75;2.92;;;23.80;56.70;;;;;;5053583;28;20214;-64
2022/08/23 07:27:23;;;;;;;3.90;2.50;;;23.90;56.70;;;;;;5054426;28;20207;-67
2022/08/23 07:29:49;;;;;;;2.88;2.58;;;23.90;56.70;;;;;;5054313;28;20207;-67
2022/08/23 07:32:14;;;;;;;6.10;2.88;;;23.90;56.70;;;;;;5053858;28;20211;-67
2022/08/23 07:34:40;;;;;;;3.92;2.45;;;23.90;56.70;;;;;;5054217;28;20171;-67
2022/08/23 07:37:05;;;;;;;4.85;2.78;;;23.90;56.70;;;;;;5054184;28;20175;-69
2022/08/23 07:39:31;;;;;;;4.10;2.80;;;24.00;57.10;;;;;;5053448;28;20171;-68
2022/08/23 07:42:00;;;;;;;4.07;2.53;;;24.00;56.70;;;;;;5054144;28;20186;-67
2022/08/23 07:44:26;;;;;;;3.53;2.25;;;24.00;56.70;;;;;;5054143;28;20753;-70
2022/08/23 07:46:51;;;;;;;3.63;2.92;;;24.00;56.80;;;;;;5053438;28;20271;-70
2022/08/23 07:49:17;;;;;;;3.75;2.60;;;24.00;56.70;;;;;;5054170;28;20175;-68
2022/08/23 07:51:45;;;;;;;4.70;3.00;;;24.00;56.80;;;;;;5054067;28;20211;-68
2022/08/23 07:54:11;;;;;;;6.50;2.72;;;24.00;56.80;;;;;;5053561;28;20186;-63
2022/08/23 07:56:37;;;;;;;5.28;2.40;;;24.20;57.00;;;;;;5054089;28;20184;-66
2022/08/23 07:59:03;;;;;;;6.68;2.90;;;24.10;57.00;;;;;;5053784;28;20232;-66
2022/08/23 08:01:29;;;;;;;6.68;2.50;;;24.20;56.90;;;;;;5053041;28;20232;-64
2022/08/23 08:03:56;;;;;;;5.50;2.75;;;24.20;56.90;;;;;;5053760;28;20258;-66
2022/08/23 08:06:30;;;;;;;5.97;2.70;;;24.20;56.90;;;;;;5053704;28;20182;-66
2022/08/23 08:08:56;;;;;;;7.72;2.78;;;24.20;56.90;;;;;;5053397;28;20547;-66
2022/08/23 08:11:24;;;;;;;6.82;2.65;;;24.20;56.90;;;;;;5053754;28;20219;-66
2022/08/23 08:13:50;;;;;;;3.58;2.47;;;24.20;56.80;;;;;;5051845;28;20183;-66
2022/08/23 08:16:23;;;;;;;6.00;2.97;;;24.30;56.80;;;;;;5053603;28;20183;-68
2022/08/23 08:18:49;;;;;;;5.43;2.65;;;24.30;56.80;;;;;;5053475;28;20179;-66
2022/08/23 08:21:15;;;;;;;3.38;2.63;;;24.30;56.70;;;;;;5052933;28;20593;-66
2022/08/23 08:23:40;;;;;;;4.88;2.72;;;24.30;56.70;;;;;;5053428;28;20638;-69
2022/08/23 08:26:06;;;;;;;3.45;2.75;;;24.40;56.70;;;;;;5053417;28;20647;-71
2022/08/23 08:28:33;;;;;;;2.80;2.30;;;24.30;56.60;;;;;;5052712;28;20171;-69
2022/08/23 08:30:58;;;;;;;5.45;2.67;;;24.40;56.70;;;;;;5053250;28;20207;-68
2022/08/23 08:33:25;;;;;;;5.85;2.50;;;24.40;57.30;;;;;;5053142;28;20173;-65
2022/08/23 08:35:50;;;;;;;6.30;2.55;;;24.50;56.90;;;;;;5052336;28;20587;-61
2022/08/23 08:38:16;;;;;;;5.88;2.78;;;24.50;56.90;;;;;;5053070;28;20244;-61
2022/08/23 08:40:41;;;;;;;4.63;2.88;;;24.50;56.80;;;;;;5053388;28;20175;-61
2022/08/23 08:43:11;;;;;;;3.55;2.53;;;24.50;56.70;;;;;;5051087;28;20175;-62
2022/08/23 08:45:48;;;;;;;3.85;2.40;;;24.50;56.70;;;;;;5053094;28;20175;-61
2022/08/23 08:48:14;;;;;;;3.40;2.47;;;24.50;56.70;;;;;;5051787;28;20640;-61
2022/08/23 08:50:54;;;;;;;4.55;2.72;;;24.50;56.60;;;;;;5050824;28;20699;-62
2022/08/23 08:53:30;;;;;;;4.57;2.45;;;24.50;56.60;;;;;;5051553;28;20190;-63
2022/08/23 08:56:00;;;;;;;5.70;2.70;;;24.60;56.50;;;;;;5050938;28;20179;-64
2022/08/23 08:58:42;;;;;;;3.17;2.10;;;24.60;56.60;;;;;;5051627;28;20186;-64
2022/08/23 09:01:07;;;;;;;4.95;2.80;;;24.60;56.70;;;;;;5051634;28;20237;-64
2022/08/23 09:03:33;;;;;;;4.85;2.92;;;24.60;56.70;;;;;;5051020;28;20171;-65
2022/08/23 09:06:02;;;;;;;4.90;2.95;;;24.60;56.70;;;;;;5051491;28;20170;-64
2022/08/23 09:08:53;;;;;;;3.47;3.00;;;24.60;56.80;;;;;;5051348;28;20230;-65
2022/08/23 09:11:38;;;;;;;3.15;2.28;;;24.60;56.70;;;;;;5050923;28;20626;-65
2022/08/23 09:14:25;;;;;;;2.70;2.50;;;24.60;56.70;;;;;;5051392;28;20178;-65
2022/08/23 09:17:01;;;;;;;3.05;2.30;;;24.60;56.70;;;;;;5050700;28;20171;-64
2022/08/23 09:19:27;;;;;;;3.78;2.97;;;24.70;56.80;;;;;;5051241;28;20183;-64
2022/08/23 09:21:58;;;;;;;3.72;2.72;;;24.70;56.60;;;;;;5051026;28;20171;-64
2022/08/23 09:24:24;;;;;;;2.78;2.55;;;24.70;56.60;;;;;;5050008;28;20597;-65
2022/08/23 09:26:52;;;;;;;5.30;2.70;;;24.70;56.60;;;;;;5052335;28;20322;-64
2022/08/23 09:29:23;;;;;;;3.38;2.55;;;24.70;56.60;;;;;;5052380;28;20210;-64
2022/08/23 09:31:53;;;;;;;3.33;2.33;;;24.70;56.60;;;;;;5051142;28;20684;-64
2022/08/23 09:34:28;;;;;;;5.90;3.10;;;24.80;56.70;;;;;;5052132;28;20183;-64
2022/08/23 09:37:12;;;;;;;4.20;2.75;;;24.80;56.60;;;;;;5059305;28;20167;-63
2022/08/23 09:39:43;;;;;;;4.32;2.20;;;24.80;56.60;;;;;;5058681;28;20662;-63
2022/08/23 09:42:26;;;;;;;4.32;2.88;;;24.80;56.70;;;;;;5072235;28;20531;-63
2022/08/23 09:44:51;;;;;;;3.45;2.80;;;24.80;56.60;;;;;;5054744;28;20590;-63
2022/08/23 09:47:17;;;;;;;5.32;2.75;;;24.90;56.60;;;;;;5033040;28;20172;-63
2022/08/23 09:49:44;;;;;;;3.67;2.20;;;24.90;56.60;;;;;;5052391;28;20210;-63
2022/08/23 09:52:25;;;;;;;2.80;2.55;;;24.90;56.60;;;;;;5057510;28;20206;-63
2022/08/23 09:54:56;;;;;;;4.32;2.50;;;24.90;56.50;;;;;;5070874;28;20196;-66
2022/08/23 09:57:24;;;;;;;3.88;2.30;;;24.90;56.50;;;;;;5072412;28;20174;-64
2022/08/23 09:59:54;;;;;;;3.63;2.70;;;25.00;56.40;;;;;;5054108;28;20542;-65
2022/08/23 10:02:20;;;;;;;4.72;2.58;;;25.00;56.40;;;;;;5072542;28;20171;-67
2022/08/23 10:04:59;;;;;;;4.53;2.72;;;25.00;56.50;;;;;;5072112;28;20174;-65
2022/08/23 10:07:31;;;;;;;4.15;2.60;;;25.00;56.50;;;;;;5071319;28;20229;-65
2022/08/23 10:10:19;;;;;;;5.97;2.20;;;25.00;56.50;;;;;;5060030;28;20194;-65
2022/08/23 10:12:45;;;;;;;3.58;2.55;;;25.00;56.50;;;;;;5050840;28;20183;-64
2022/08/23 10:15:10;;;;;;;4.43;2.63;;;25.00;56.50;;;;;;5051582;28;20171;-65
2022/08/23 10:17:46;;;;;;;5.63;2.47;;;25.00;56.60;;;;;;5052257;28;20174;-64
2022/08/23 10:20:22;;;;;;;4.88;2.78;;;25.00;56.60;;;;;;5051758;28;20183;-68
2022/08/23 10:22:54;;;;;;;4.25;2.50;;;25.10;56.80;;;;;;5035081;28;20183;-67
2022/08/23 10:25:36;;;;;;;3.88;2.47;;;25.10;56.60;;;;;;5033432;28;20187;-67
2022/08/23 10:31:34;;;;;;;3.85;2.00;;;25.10;56.50;;;;;;5050912;28;20218;-67
2022/08/23 10:34:16;;;;;;;2.40;2.08;;;25.10;56.40;;;;;;5034827;28;20229;-66
2022/08/23 10:37:14;;;;;;;3.20;2.70;;;25.10;56.40;;;;;;5053125;28;20638;-67
2022/08/23 10:40:02;;;;;;;4.90;2.33;;;25.10;56.20;;;;;;5040606;28;20258;-67
2022/08/23 10:43:05;;;;;;;3.40;2.60;;;25.10;56.30;;;;;;5033744;28;20187;-67
2022/08/23 10:45:33;;;;;;;4.57;2.45;;;25.10;56.30;;;;;;5035518;28;20207;-68
2022/08/23 10:48:18;;;;;;;4.78;2.70;;;25.10;56.30;;;;;;5035282;28;20176;-67
2022/08/23 10:50:46;;;;;;;6.80;2.70;;;25.10;56.20;;;;;;5033969;28;20196;-67
2022/08/23 10:53:14;;;;;;;3.53;2.47;;;25.10;56.20;;;;;;5035298;28;20258;-67
2022/08/23 10:56:02;;;;;;;3.05;2.55;;;25.10;56.10;;;;;;5034556;28;20183;-66
2022/08/23 10:58:42;;;;;;;2.67;2.30;;;25.10;56.00;;;;;;5037814;28;20527;-67
2022/08/23 11:01:07;;;;;;;3.45;2.67;;;25.20;55.90;;;;;;5053372;28;20615;-67
2022/08/23 11:03:43;;;;;;;2.65;2.25;;;25.10;55.70;;;;;;5054047;28;20266;-67
2022/08/23 11:06:48;;;;;;;5.72;2.58;;;25.20;55.70;;;;;;5055249;28;20244;-63
2022/08/23 11:09:20;;;;;;;3.53;2.35;;;25.30;55.70;;;;;;5032699;28;20319;-63
2022/08/23 11:11:49;;;;;;;2.97;2.30;;;25.40;56.00;;;;;;5051302;28;20582;-63
2022/08/23 11:14:32;;;;;;;3.47;2.63;;;25.30;55.90;;;;;;5053777;28;20652;-63
2022/08/23 11:17:00;;;;;;;4.60;2.78;;;25.30;55.90;;;;;;5054008;28;20563;-62
2022/08/23 11:19:51;;;;;;;4.00;2.30;;;25.30;56.00;;;;;;5053473;28;20183;-62
2022/08/23 11:22:22;;;;;;;4.55;2.40;;;25.30;55.90;;;;;;5054685;28;20576;-62
2022/08/23 11:25:02;;;;;;;3.97;2.42;;;25.40;55.80;;;;;;5052796;28;20210;-62
2022/08/23 11:27:41;;;;;;;5.47;2.60;;;25.40;55.70;;;;;;5054612;28;20187;-62
2022/08/23 11:30:32;;;;;;;4.30;2.38;;;25.40;55.70;;;;;;5053396;28;20175;-63
2022/08/23 11:32:59;;;;;;;4.45;2.95;;;25.40;55.50;;;;;;5054252;28;20262;-64
2022/08/23 11:36:15;;;;;;;7.65;2.67;;;25.50;55.60;;;;;;5053490;28;20179;-64
2022/08/23 11:38:46;;;;;;;4.22;2.50;;;25.50;55.70;;;;;;5049064;28;20194;-64
2022/08/23 11:41:18;;;;;;;3.85;2.60;;;25.50;55.70;;;;;;5054328;28;20167;-64
2022/08/23 11:44:07;;;;;;;3.75;2.40;;;25.50;55.80;;;;;;5054335;28;20183;-65
2022/08/23 11:46:53;;;;;;;3.42;2.67;;;25.50;55.90;;;;;;5050328;28;20176;-65
2022/08/23 11:49:36;;;;;;;4.65;2.55;;;25.60;55.90;;;;;;5050031;28;20179;-64
2022/08/23 11:52:17;;;;;;;3.90;2.30;;;25.60;55.90;;;;;;5052312;28;20230;-63
2022/08/23 11:55:20;;;;;;;3.65;2.47;;;25.60;55.80;;;;;;5054224;28;20170;-62
2022/08/23 11:58:11;;;;;;;5.70;2.85;;;25.60;55.80;;;;;;5053768;28;20170;-62
2022/08/23 12:01:06;;;;;;;4.63;2.65;;;25.70;55.80;;;;;;5038356;28;20175;-62
2022/08/23 12:03:50;;;;;;;5.65;2.65;;;25.70;55.50;;;;;;5038175;28;20171;-62
2022/08/23 12:06:19;;;;;;;5.45;2.90;;;25.80;55.40;;;;;;5053102;28;20179;-62
2022/08/23 12:08:48;;;;;;;6.32;3.30;;;25.80;55.20;;;;;;5053575;28;20314;-63
2022/08/23 12:11:15;;;;;;;3.67;2.53;;;25.80;55.10;;;;;;5052365;28;20207;-62
2022/08/23 12:13:50;;;;;;;4.97;2.75;;;25.80;54.90;;;;;;5053107;28;20229;-62
2022/08/23 12:16:15;;;;;;;5.22;3.10;;;25.90;54.90;;;;;;5052655;28;20170;-63
2022/08/23 12:18:51;;;;;;;6.78;2.80;;;25.90;54.90;;;;;;5053789;28;20171;-62
2022/08/23 12:21:44;;;;;;;5.22;2.90;;;25.90;54.70;;;;;;5052731;28;20178;-63
2022/08/23 12:24:31;;;;;;;2.65;2.42;;;25.90;54.80;;;;;;5050475;28;20587;-62
2022/08/23 12:27:24;;;;;;;3.88;3.03;;;25.80;54.70;;;;;;5051424;28;20232;-63
2022/08/23 12:30:09;;;;;;;3.35;2.53;;;25.80;54.70;;;;;;5053247;28;20179;-63
2022/08/23 12:32:58;;;;;;;4.50;2.47;;;25.90;54.60;;;;;;5052196;28;20222;-62
2022/08/23 12:35:37;;;;;;;5.18;2.90;;;26.00;54.50;;;;;;5051342;28;20166;-61
2022/08/23 12:38:07;;;;;;;3.63;2.60;;;25.90;54.50;;;;;;5052110;28;20179;-62
2022/08/23 12:40:40;;;;;;;5.32;2.70;;;25.80;54.60;;;;;;5052066;28;20256;-62
2022/08/23 12:43:30;;;;;;;4.80;2.85;;;25.80;54.60;;;;;;5052220;28;20289;-62
2022/08/23 12:45:57;;;;;;;3.15;2.40;;;25.80;54.50;;;;;;5052642;28;20183;-63
2022/08/23 12:48:25;;;;;;;4.10;2.80;;;26.00;54.60;;;;;;5052501;28;20195;-62
2022/08/23 12:50:58;;;;;;;4.78;2.25;;;25.90;54.40;;;;;;5052855;28;20207;-62
2022/08/23 12:53:32;;;;;;;4.32;2.67;;;25.90;54.40;;;;;;5053126;28;20661;-62
2022/08/23 12:56:06;;;;;;;7.20;3.08;;;25.90;54.50;;;;;;5052170;28;20175;-62
2022/08/23 12:58:33;;;;;;;4.22;2.42;;;25.80;54.40;;;;;;5051621;28;20256;-62
2022/08/23 13:01:02;;;;;;;3.85;2.83;;;25.80;54.50;;;;;;5052601;28;20258;-63
2022/08/23 13:03:33;;;;;;;5.32;2.97;;;25.80;54.40;;;;;;5052072;28;20183;-63
2022/08/23 13:06:18;;;;;;;3.75;2.92;;;25.70;54.40;;;;;;5051683;28;20661;-63
2022/08/23 13:08:44;;;;;;;4.30;2.95;;;25.70;54.40;;;;;;5051460;28;20360;-63
2022/08/23 13:11:10;;;;;;;4.10;2.50;;;25.70;54.50;;;;;;5052274;28;20294;-63
2022/08/23 13:13:37;;;;;;;4.25;2.63;;;25.70;54.40;;;;;;5051709;28;20262;-63